• Join FlightAware (Why Join?)
  • Login
  • US Flag 
08:35PM EDT


 

Airport Tracker/Info


-or-


 

Live Flight TrackerFlight Track Log ✈ LAK145 ✈ 23-Mar-2014 ✈ KSFO - KMRY

Flight Track Log - Related Links

Times and Time Zones

All times are in EDT time to prevent confusion due to time zone crossing. See the LAK145 flight status page for this flight to view local times or setup timezone preferences in your user account.

Time Position Orientation Groundspeed Altitude Reporting Facility
EDT Latitude Longitude Course Direction KTS MPH feet Rate Location/Type
11:56PM 37.6500 -122.3667 270° West 181 208 3,300  Level Northern Cal TRACON
11:57PM 37.6500 -122.4500 270° West 253 291 8,000 3,660 Climbing Northern Cal TRACON
11:58PM 37.6106 -122.4742 206° Southwest 243 280 9,900 1,740 Climbing Oakland Center
11:59PM 37.5361 -122.4875 188° South 280 322 11,000 540 Climbing Oakland Center
12:00AM 37.4572 -122.4736 172° South 285 328 11,000  Level Oakland Center
12:01AM 37.3786 -122.4672 176° South 283 326 11,000  Level Oakland Center
12:02AM 37.2992 -122.4603 176° South 285 328 11,000  Level Oakland Center
12:03AM 37.2206 -122.4542 176° South 282 325 11,000 -300 Level Oakland Center
12:04AM 37.1456 -122.4294 165° South 278 320 10,500 -840 Descending Oakland Center
12:05AM 37.0694 -122.3581 143° Southeast 282 325 9,300 -1,140 Descending Oakland Center
12:06AM 37.0058 -122.2989 143° Southeast 284 327 8,200 -720 Descending Oakland Center
12:07AM 36.9425 -122.2453 146° Southeast 278 320 7,900 -1,140 Descending Oakland Center
12:08AM 36.8797 -122.2100 156° South 255 293 6,000 -1,920 Descending Oakland Center
12:09AM 36.8236 -122.1722 152° Southeast 241 277 4,000 -1,500 Descending Oakland Center
12:10AM 36.7711 -122.1336 149° Southeast 229 264 3,000 -540 Descending Oakland Center
12:11AM 36.7219 -122.0983 150° Southeast 216 249 3,000  Level Oakland Center
12:12AM 36.6667 -122.0500 145° Southeast 199 229 3,000 -180 Level Northern Cal TRACON
12:13AM 36.6333 -122.0000 130° Southeast 164 189 2,700 -600 Descending Northern Cal TRACON
12:14AM 36.6167 -121.9500 113° Southeast 150 173 1,800 -900 Descending Northern Cal TRACON
12:15AM 36.6167 -121.9167 90° East 150 173 1,100 -720 Descending Northern Cal TRACON
12:16AM 36.6000 -121.8833 122° Southeast 116 133 500 -420 Descending Northern Cal TRACON
12:17AM 36.5833 -121.8333 113° Southeast 109 125 300 -240 Descending Northern Cal TRACON